Ontario, Ohio
Current Conditions -  °F | °C
As of 10:52 AM on Sunday 25 Jan 2015 (Local Time) from KMFD Reporting Station
Haze Haze  
Wind Chill: 20°   Ceiling: 300
Heat Index: 30°   Visibility: 2.5mi
Dew Point: 30°   Wind: 13mph
Humidity: 100%   Direction: 30°NNE
Pressure: 29.79"   Gusts: NA
Location:  40.76°N, 82.59°W
Report Text: KMFD 251552Z 03011KT 2 1/2SM BR OVC003 M01/M01 A2979 RMK AO2 SLP098 T10111011
Loading
Personal Weather Stations






























Interactive Weather Map New forecast layout! Learn more

10-Day Weather Forecast

Advertisements
Track Severe Weather on mobile